Time;durP1;ratioP1;P1;durP2;ratioP2;P2;SDS_P1;SDS_P2;PMS_P1;PMS_P2;Temp;Humidity;BMP_temperature;BMP_pressure;BME280_temperature;BME280_humidity;BME280_pressure;Samples;Min_cycle;Max_cycle;Signal;HPM_P1;HPM_P2
2022/05/08 00:00:23;;;;;;;;;26.00;23.33;;;;;;;;5131386;27;45296;-79
2022/05/08 00:02:52;;;;;;;;;25.00;21.00;;;;;;;;5129398;27;45314;-78
2022/05/08 00:05:18;;;;;;;;;21.67;21.67;;;;;;;;5127579;27;45146;-78
2022/05/08 00:07:43;;;;;;;;;25.00;22.67;;;;;;;;5128610;27;45384;-78
2022/05/08 00:10:08;;;;;;;;;25.00;24.00;;;;;;;;5127876;27;47564;-78
2022/05/08 00:12:34;;;;;;;;;23.67;23.67;;;;;;;;5128492;27;45307;-78
2022/05/08 00:14:59;;;;;;;;;28.33;24.33;;;;;;;;5129180;27;45335;-78
2022/05/08 00:17:24;;;;;;;;;25.33;23.33;;;;;;;;5109454;27;45541;-78
2022/05/08 00:19:49;;;;;;;;;28.67;26.33;;;;;;;;5106030;27;46644;-78
2022/05/08 00:22:15;;;;;;;;;27.67;26.33;;;;;;;;5106848;27;45263;-78
2022/05/08 00:24:40;;;;;;;;;25.00;25.00;;;;;;;;5105023;27;45342;-78
2022/05/08 00:27:06;;;;;;;;;33.00;30.33;;;;;;;;5115915;27;45319;-77
2022/05/08 00:29:31;;;;;;;;;34.50;30.50;;;;;;;;5114308;27;45325;-78
2022/05/08 00:31:57;;;;;;;;;20.00;20.00;;;;;;;;5115203;27;45877;-78
2022/05/08 00:34:22;;;;;;;;;28.67;27.33;;;;;;;;5108546;27;45309;-78
2022/05/08 00:36:47;;;;;;;;;26.33;24.33;;;;;;;;5105613;27;45343;-78
2022/05/08 00:39:13;;;;;;;;;29.00;27.33;;;;;;;;5105811;27;45148;-78
2022/05/08 00:41:38;;;;;;;;;30.75;30.00;;;;;;;;5103791;27;45452;-78
2022/05/08 00:44:04;;;;;;;;;32.75;30.00;;;;;;;;5108654;27;45292;-78
2022/05/08 00:46:29;;;;;;;;;30.00;27.00;;;;;;;;5110173;27;45555;-78
2022/05/08 00:48:55;;;;;;;;;32.25;31.00;;;;;;;;5103161;27;45247;-77
2022/05/08 00:51:20;;;;;;;;;33.25;30.50;;;;;;;;5107059;27;45253;-77
2022/05/08 00:53:48;;;;;;;;;37.00;32.00;;;;;;;;5110554;27;45223;-78
2022/05/08 00:56:14;;;;;;;;;35.25;31.75;;;;;;;;5103487;27;46724;-78
2022/05/08 00:58:40;;;;;;;;;35.25;31.75;;;;;;;;5109857;27;45277;-78
2022/05/08 01:01:06;;;;;;;;;31.75;30.00;;;;;;;;5116065;27;45311;-77
2022/05/08 01:03:32;;;;;;;;;37.25;33.00;;;;;;;;5104943;27;45364;-78
2022/05/08 01:06:02;;;;;;;;;33.75;30.25;;;;;;;;5103199;27;45882;-78
2022/05/08 01:08:28;;;;;;;;;31.00;29.75;;;;;;;;5107028;27;47106;-78
2022/05/08 01:10:54;;;;;;;;;31.50;30.00;;;;;;;;5105358;27;45394;-78
2022/05/08 01:13:19;;;;;;;;;31.67;29.67;;;;;;;;5108973;27;45459;-78
2022/05/08 01:15:46;;;;;;;;;33.50;29.00;;;;;;;;5121194;27;47139;-77
2022/05/08 01:18:14;;;;;;;;;33.25;30.00;;;;;;;;5127900;27;47784;-78
2022/05/08 01:20:41;;;;;;;;;31.00;29.00;;;;;;;;5127503;27;45233;-78
2022/05/08 01:23:06;;;;;;;;;29.25;27.50;;;;;;;;5123729;27;45257;-78
2022/05/08 01:25:33;;;;;;;;;32.75;29.75;;;;;;;;5133209;27;45532;-77
2022/05/08 01:27:59;;;;;;;;;31.50;28.75;;;;;;;;5132425;27;47562;-77
2022/05/08 01:30:25;;;;;;;;;31.50;29.25;;;;;;;;5130608;27;45347;-77
2022/05/08 01:32:50;;;;;;;;;32.50;29.75;;;;;;;;5134989;27;45577;-77
2022/05/08 01:35:16;;;;;;;;;32.25;31.00;;;;;;;;5127904;27;45563;-77
2022/05/08 01:37:41;;;;;;;;;29.50;29.00;;;;;;;;5133168;27;48517;-78
2022/05/08 01:40:07;;;;;;;;;30.75;29.00;;;;;;;;5130266;27;45291;-78
2022/05/08 01:42:32;;;;;;;;;27.67;27.00;;;;;;;;5126946;27;45328;-77
2022/05/08 01:44:58;;;;;;;;;28.00;25.67;;;;;;;;5125480;27;45983;-77
2022/05/08 01:50:07;;;;;;;;;29.00;26.33;;;;;;;;5131863;27;45359;-77
2022/05/08 01:52:32;;;;;;;;;30.67;28.67;;;;;;;;5130468;27;45363;-77
2022/05/08 01:54:57;;;;;;;;;29.00;28.00;;;;;;;;5129379;27;47153;-78
2022/05/08 01:57:22;;;;;;;;;27.33;27.00;;;;;;;;5128133;27;45431;-78
2022/05/08 01:59:48;;;;;;;;;30.33;28.67;;;;;;;;5126513;27;45209;-78
2022/05/08 02:02:13;;;;;;;;;27.00;26.33;;;;;;;;5126399;27;45267;-77
2022/05/08 02:04:40;;;;;;;;;27.33;25.00;;;;;;;;5128315;27;45240;-78
2022/05/08 02:07:05;;;;;;;;;30.33;28.67;;;;;;;;5122864;27;45360;-78
2022/05/08 02:09:30;;;;;;;;;33.00;29.33;;;;;;;;5126555;27;45792;-77
2022/05/08 02:11:55;;;;;;;;;26.33;25.67;;;;;;;;5128883;27;45361;-77
2022/05/08 02:14:21;;;;;;;;;28.75;27.00;;;;;;;;5129205;27;47013;-78
2022/05/08 02:16:46;;;;;;;;;28.00;28.00;;;;;;;;5111088;27;45412;-77
2022/05/08 02:19:11;;;;;;;;;26.33;26.00;;;;;;;;5103498;27;45959;-78
2022/05/08 02:21:36;;;;;;;;;30.25;28.50;;;;;;;;5102816;27;45233;-78
2022/05/08 02:24:02;;;;;;;;;29.33;28.33;;;;;;;;5109117;27;45246;-77
2022/05/08 02:26:27;;;;;;;;;26.00;25.00;;;;;;;;5105189;27;46524;-77
2022/05/08 02:28:52;;;;;;;;;28.00;26.67;;;;;;;;5107248;27;45172;-78
2022/05/08 02:31:17;;;;;;;;;35.75;29.75;;;;;;;;5106132;27;45563;-78
2022/05/08 02:33:42;;;;;;;;;23.00;21.67;;;;;;;;5105116;27;46426;-78
2022/05/08 02:36:08;;;;;;;;;29.33;29.00;;;;;;;;5107257;27;46308;-78
2022/05/08 02:38:33;;;;;;;;;32.75;29.75;;;;;;;;5109096;27;45294;-77
2022/05/08 02:40:59;;;;;;;;;30.33;27.33;;;;;;;;5113240;27;45338;-78
2022/05/08 02:43:24;;;;;;;;;31.75;30.75;;;;;;;;5106408;27;47026;-78
2022/05/08 02:45:49;;;;;;;;;27.67;27.33;;;;;;;;5103865;27;48213;-78
2022/05/08 02:48:15;;;;;;;;;29.00;27.67;;;;;;;;5102634;27;45274;-78
2022/05/08 02:50:40;;;;;;;;;28.67;28.67;;;;;;;;5104609;27;45255;-78
2022/05/08 02:53:05;;;;;;;;;29.75;28.75;;;;;;;;5108460;27;45778;-77
2022/05/08 02:58:33;;;;;;;;;36.75;31.25;;;;;;;;5113781;27;45400;-78
2022/05/08 03:01:02;;;;;;;;;35.50;31.50;;;;;;;;5107532;27;45313;-78
2022/05/08 03:03:27;;;;;;;;;31.50;30.00;;;;;;;;5108854;27;47244;-78
2022/05/08 03:05:52;;;;;;;;;32.75;30.75;;;;;;;;5106365;27;45273;-78
2022/05/08 03:08:19;;;;;;;;;31.25;29.75;;;;;;;;5107155;27;45269;-78
2022/05/08 03:13:29;;;;;;;;;37.00;32.50;;;;;;;;5110603;27;45201;-78
2022/05/08 03:15:54;;;;;;;;;42.00;34.75;;;;;;;;5122050;27;45511;-78
2022/05/08 03:18:19;;;;;;;;;39.75;35.00;;;;;;;;5132239;27;45234;-78
2022/05/08 03:20:45;;;;;;;;;41.50;35.00;;;;;;;;5135085;27;45252;-78
2022/05/08 03:23:10;;;;;;;;;41.00;34.25;;;;;;;;5133787;27;46010;-78
2022/05/08 03:25:36;;;;;;;;;42.00;36.00;;;;;;;;5132882;27;48023;-78
2022/05/08 03:28:01;;;;;;;;;39.75;34.75;;;;;;;;5132552;27;45241;-78
2022/05/08 03:30:28;;;;;;;;;42.25;36.25;;;;;;;;5132004;27;45227;-78
2022/05/08 03:32:53;;;;;;;;;43.75;36.50;;;;;;;;5129651;27;46503;-78
2022/05/08 03:35:18;;;;;;;;;45.25;39.00;;;;;;;;5128366;27;45534;-78
2022/05/08 03:37:44;;;;;;;;;47.50;40.00;;;;;;;;5129022;27;45347;-78
2022/05/08 03:40:10;;;;;;;;;51.25;42.75;;;;;;;;5129652;27;45704;-78
2022/05/08 03:42:35;;;;;;;;;49.50;41.50;;;;;;;;5132205;27;45436;-77
2022/05/08 03:45:01;;;;;;;;;52.75;43.00;;;;;;;;5132724;27;45356;-78
2022/05/08 03:47:26;;;;;;;;;52.75;42.00;;;;;;;;5130706;27;45601;-78
2022/05/08 03:49:51;;;;;;;;;54.25;44.00;;;;;;;;5127575;27;45710;-78
2022/05/08 03:52:17;;;;;;;;;53.75;44.50;;;;;;;;5125607;27;45824;-79
2022/05/08 03:54:42;;;;;;;;;58.00;47.00;;;;;;;;5128292;27;46356;-78
2022/05/08 03:57:07;;;;;;;;;53.50;43.25;;;;;;;;5124947;27;45293;-78
2022/05/08 03:59:32;;;;;;;;;53.50;44.00;;;;;;;;5125114;27;45312;-77
2022/05/08 04:01:58;;;;;;;;;55.75;45.00;;;;;;;;5127917;27;45717;-79
2022/05/08 04:04:23;;;;;;;;;57.25;46.50;;;;;;;;5131803;27;47353;-78
2022/05/08 04:06:48;;;;;;;;;57.00;44.50;;;;;;;;5130233;27;45171;-78
2022/05/08 04:09:16;;;;;;;;;59.50;46.75;;;;;;;;5133972;27;45227;-78
2022/05/08 04:11:41;;;;;;;;;54.75;44.00;;;;;;;;5130233;27;46065;-79
2022/05/08 04:14:07;;;;;;;;;57.00;46.50;;;;;;;;5128887;27;47244;-78
2022/05/08 04:16:32;;;;;;;;;58.25;45.75;;;;;;;;5114890;27;45166;-78
2022/05/08 04:18:57;;;;;;;;;57.50;46.50;;;;;;;;5109939;27;45518;-78
2022/05/08 04:21:23;;;;;;;;;60.25;48.00;;;;;;;;5112551;27;46024;-78
2022/05/08 04:26:32;;;;;;;;;56.25;46.00;;;;;;;;5112377;27;45238;-78
2022/05/08 04:28:58;;;;;;;;;62.50;48.00;;;;;;;;5110363;27;45462;-78
2022/05/08 04:31:23;;;;;;;;;63.50;50.00;;;;;;;;5106362;27;45259;-78
2022/05/08 04:33:49;;;;;;;;;57.50;45.75;;;;;;;;5110974;27;47508;-78
2022/05/08 04:36:14;;;;;;;;;55.00;45.25;;;;;;;;5106798;27;45262;-78
2022/05/08 04:38:39;;;;;;;;;60.50;48.00;;;;;;;;5104893;27;45298;-78
2022/05/08 04:41:05;;;;;;;;;57.75;47.25;;;;;;;;5107487;27;46093;-78
2022/05/08 04:43:30;;;;;;;;;60.00;48.75;;;;;;;;5107653;27;47175;-77
2022/05/08 04:45:55;;;;;;;;;59.25;48.75;;;;;;;;5107203;27;45265;-79
2022/05/08 04:48:21;;;;;;;;;59.25;47.75;;;;;;;;5106193;27;45362;-78
2022/05/08 04:50:46;;;;;;;;;65.00;51.00;;;;;;;;5105874;27;46404;-78
2022/05/08 04:53:11;;;;;;;;;64.25;50.50;;;;;;;;5105137;27;46072;-78
2022/05/08 04:55:36;;;;;;;;;62.75;49.00;;;;;;;;5106050;27;45388;-79
2022/05/08 04:58:02;;;;;;;;;67.25;53.75;;;;;;;;5110084;27;45429;-78
2022/05/08 05:00:28;;;;;;;;;66.75;54.00;;;;;;;;5110318;27;45395;-78
2022/05/08 05:02:53;;;;;;;;;60.00;48.25;;;;;;;;5108906;27;46124;-78
2022/05/08 05:05:18;;;;;;;;;65.25;53.25;;;;;;;;5106198;27;46293;-78
2022/05/08 05:07:44;;;;;;;;;60.50;47.50;;;;;;;;5106885;27;45218;-78
2022/05/08 05:10:13;;;;;;;;;63.50;50.25;;;;;;;;5103848;27;46290;-77
2022/05/08 05:12:39;;;;;;;;;63.25;49.75;;;;;;;;5106108;27;46464;-78
2022/05/08 05:15:05;;;;;;;;;64.50;51.00;;;;;;;;5109102;27;45445;-78
2022/05/08 05:17:30;;;;;;;;;65.75;52.75;;;;;;;;5127118;27;45282;-77
2022/05/08 05:19:55;;;;;;;;;62.25;48.75;;;;;;;;5125362;27;46189;-78
2022/05/08 05:22:21;;;;;;;;;60.50;48.75;;;;;;;;5126994;27;46253;-77
2022/05/08 05:24:46;;;;;;;;;61.50;49.00;;;;;;;;5130978;27;45397;-79
2022/05/08 05:27:12;;;;;;;;;60.50;49.25;;;;;;;;5133583;27;45312;-78
2022/05/08 05:29:37;;;;;;;;;64.00;49.75;;;;;;;;5125753;27;45990;-79
2022/05/08 05:32:02;;;;;;;;;63.75;51.00;;;;;;;;5125514;27;46722;-80
2022/05/08 05:34:28;;;;;;;;;62.75;49.25;;;;;;;;5127634;27;45230;-79
2022/05/08 05:36:53;;;;;;;;;64.00;51.50;;;;;;;;5129159;27;45323;-78
2022/05/08 05:39:19;;;;;;;;;62.00;49.50;;;;;;;;5128276;27;45253;-78
2022/05/08 05:41:45;;;;;;;;;60.00;48.25;;;;;;;;5127913;27;46898;-78
2022/05/08 05:44:10;;;;;;;;;60.50;48.25;;;;;;;;5130405;27;45280;-79
2022/05/08 05:49:19;;;;;;;;;62.25;49.50;;;;;;;;5125442;27;45486;-78
2022/05/08 05:51:44;;;;;;;;;64.50;50.50;;;;;;;;5127050;27;45474;-78
2022/05/08 05:54:10;;;;;;;;;61.25;49.25;;;;;;;;5121027;27;45261;-78
2022/05/08 05:56:35;;;;;;;;;59.00;45.50;;;;;;;;5119818;27;45170;-78
2022/05/08 05:59:00;;;;;;;;;63.25;50.00;;;;;;;;5104069;27;45349;-79
2022/05/08 06:01:25;;;;;;;;;50.75;43.25;;;;;;;;5099674;27;46372;-78
2022/05/08 06:03:51;;;;;;;;;63.50;50.00;;;;;;;;5103197;27;46107;-79
2022/05/08 06:06:17;;;;;;;;;55.25;44.25;;;;;;;;5105971;27;45545;-78
2022/05/08 06:08:42;;;;;;;;;64.25;49.25;;;;;;;;5106875;27;45301;-77
2022/05/08 06:11:07;;;;;;;;;62.50;48.50;;;;;;;;5101669;27;47521;-80
2022/05/08 06:13:33;;;;;;;;;62.00;49.75;;;;;;;;5105247;27;45311;-80
2022/05/08 06:15:58;;;;;;;;;59.00;48.00;;;;;;;;5108303;27;45518;-78
2022/05/08 06:18:24;;;;;;;;;63.00;48.50;;;;;;;;5102992;27;47031;-82
2022/05/08 06:20:49;;;;;;;;;63.75;49.75;;;;;;;;5100967;27;47331;-80
2022/05/08 06:23:15;;;;;;;;;61.75;48.50;;;;;;;;5101730;27;45250;-81
2022/05/08 06:25:41;;;;;;;;;63.00;49.25;;;;;;;;5102472;27;45249;-80
2022/05/08 06:28:07;;;;;;;;;59.75;47.25;;;;;;;;5102520;27;45526;-80
2022/05/08 06:30:32;;;;;;;;;60.00;48.25;;;;;;;;5102059;27;48021;-82
2022/05/08 06:32:57;;;;;;;;;63.25;50.00;;;;;;;;5102489;27;45439;-80
2022/05/08 06:35:22;;;;;;;;;61.00;48.00;;;;;;;;5103647;27;45995;-84
2022/05/08 06:37:47;;;;;;;;;59.25;48.00;;;;;;;;5103618;27;45681;-81
2022/05/08 06:40:13;;;;;;;;;62.50;49.00;;;;;;;;5103614;27;46850;-78
2022/05/08 06:42:38;;;;;;;;;63.00;47.50;;;;;;;;5105744;27;45376;-82
2022/05/08 06:45:04;;;;;;;;;59.25;47.75;;;;;;;;5107715;27;45313;-82
2022/05/08 06:47:29;;;;;;;;;60.25;49.00;;;;;;;;5097076;27;45628;-81
2022/05/08 06:49:54;;;;;;;;;60.00;49.00;;;;;;;;5091384;27;47285;-82
2022/05/08 06:52:19;;;;;;;;;61.00;48.25;;;;;;;;5086002;27;46186;-79
2022/05/08 06:54:45;;;;;;;;;58.50;47.50;;;;;;;;5108009;27;45225;-79
2022/05/08 06:57:12;;;;;;;;;59.25;46.75;;;;;;;;5114145;27;45504;-79
2022/05/08 07:02:21;;;;;;;;;62.25;49.00;;;;;;;;5117924;27;45287;-78
2022/05/08 07:04:46;;;;;;;;;59.50;47.25;;;;;;;;5104243;27;45441;-78
2022/05/08 07:07:13;;;;;;;;;59.25;47.00;;;;;;;;5082607;28;47459;-79
2022/05/08 07:09:38;;;;;;;;;64.25;49.50;;;;;;;;5096517;27;45680;-79
2022/05/08 07:12:03;;;;;;;;;61.00;48.75;;;;;;;;5110490;27;45422;-80
2022/05/08 07:14:29;;;;;;;;;60.75;48.00;;;;;;;;5111015;27;45859;-79
2022/05/08 07:16:54;;;;;;;;;58.50;46.75;;;;;;;;5129492;27;47047;-78
2022/05/08 07:19:19;;;;;;;;;61.00;49.75;;;;;;;;5125952;27;46052;-80
2022/05/08 07:21:44;;;;;;;;;62.75;48.50;;;;;;;;5111652;27;45254;-78
2022/05/08 07:24:10;;;;;;;;;59.00;46.75;;;;;;;;5115987;27;45278;-78
2022/05/08 07:26:36;;;;;;;;;62.50;48.00;;;;;;;;5113616;27;45312;-76
2022/05/08 07:29:01;;;;;;;;;59.00;47.00;;;;;;;;5110790;27;47016;-79
2022/05/08 07:31:27;;;;;;;;;59.25;48.00;;;;;;;;5109296;27;45456;-79
2022/05/08 07:36:12;;;;;;;;;59.75;48.25;;;;;;;;5107751;27;45416;-78
2022/05/08 07:36:38;;;;;;;;;60.00;47.00;;;;;;;;5114782;27;45309;-78
2022/05/08 07:39:03;;;;;;;;;60.00;47.25;;;;;;;;5110191;27;45445;-77
2022/05/08 07:41:30;;;;;;;;;58.75;46.50;;;;;;;;5111374;27;45298;-78
2022/05/08 07:43:55;;;;;;;;;59.25;48.00;;;;;;;;5102967;27;45207;-80
2022/05/08 07:46:20;;;;;;;;;59.00;46.75;;;;;;;;5098196;27;45429;-78
2022/05/08 07:48:45;;;;;;;;;60.25;48.00;;;;;;;;5093537;28;46011;-79
2022/05/08 07:51:11;;;;;;;;;58.25;46.50;;;;;;;;5093743;28;45211;-77
2022/05/08 07:53:36;;;;;;;;;59.00;48.00;;;;;;;;5085936;28;45247;-77
2022/05/08 07:56:01;;;;;;;;;55.50;45.00;;;;;;;;5094783;28;46159;-77
2022/05/08 07:58:28;;;;;;;;;58.50;46.75;;;;;;;;5088239;27;45371;-79
2022/05/08 08:00:53;;;;;;;;;48.25;39.25;;;;;;;;5087008;27;45272;-79
2022/05/08 08:03:22;;;;;;;;;60.50;46.75;;;;;;;;5082630;27;45585;-77
2022/05/08 08:05:48;;;;;;;;;53.75;44.00;;;;;;;;5085791;27;45349;-77
2022/05/08 08:08:15;;;;;;;;;59.25;47.25;;;;;;;;5086144;28;45306;-79
2022/05/08 08:10:40;;;;;;;;;58.50;47.00;;;;;;;;5100838;27;45258;-79
2022/05/08 08:13:05;;;;;;;;;58.50;47.00;;;;;;;;5105999;27;45301;-78
2022/05/08 08:15:31;;;;;;;;;57.00;45.00;;;;;;;;5105523;27;45281;-78
2022/05/08 08:17:56;;;;;;;;;57.25;45.75;;;;;;;;5093541;27;47175;-79
2022/05/08 08:20:22;;;;;;;;;56.25;47.00;;;;;;;;5086119;28;45263;-79
2022/05/08 08:22:47;;;;;;;;;54.25;44.00;;;;;;;;5082722;28;45285;-79
2022/05/08 08:25:12;;;;;;;;;55.50;45.50;;;;;;;;5089443;28;45314;-78
2022/05/08 08:27:37;;;;;;;;;58.25;46.00;;;;;;;;5086927;27;45616;-80
2022/05/08 08:30:03;;;;;;;;;57.00;45.00;;;;;;;;5101221;27;45317;-78
2022/05/08 08:32:30;;;;;;;;;55.25;45.25;;;;;;;;5110740;27;45409;-79
2022/05/08 08:34:56;;;;;;;;;53.00;43.25;;;;;;;;5112516;27;45488;-80
2022/05/08 08:37:22;;;;;;;;;53.00;42.50;;;;;;;;5108363;27;45396;-78
2022/05/08 08:39:48;;;;;;;;;56.50;43.75;;;;;;;;5100478;27;45364;-79
2022/05/08 08:42:29;;;;;;;;;54.25;43.75;;;;;;;;5106064;27;45360;-78
2022/05/08 08:47:49;;;;;;;;;55.25;45.50;;;;;;;;5101682;27;45494;-82
2022/05/08 08:50:15;;;;;;;;;58.25;46.25;;;;;;;;5099366;27;45251;-76
2022/05/08 08:52:41;;;;;;;;;59.25;48.00;;;;;;;;5102214;27;45391;-78
2022/05/08 08:55:08;;;;;;;;;56.00;45.00;;;;;;;;5104091;27;45413;-76
2022/05/08 08:57:33;;;;;;;;;59.00;46.75;;;;;;;;5101139;27;45482;-80
2022/05/08 08:59:58;;;;;;;;;52.00;43.00;;;;;;;;5104139;27;45232;-79
2022/05/08 09:02:24;;;;;;;;;55.25;44.75;;;;;;;;5103132;27;45373;-74
2022/05/08 09:04:49;;;;;;;;;54.25;44.00;;;;;;;;5104137;27;45621;-76
2022/05/08 09:07:33;;;;;;;;;58.25;45.25;;;;;;;;5102602;27;45188;-82
2022/05/08 09:10:12;;;;;;;;;50.50;41.25;;;;;;;;5104891;27;45239;-83
2022/05/08 09:12:38;;;;;;;;;53.25;43.00;;;;;;;;5103888;27;45250;-81
2022/05/08 09:15:24;;;;;;;;;57.50;45.75;;;;;;;;5112194;27;46275;-80
2022/05/08 09:17:56;;;;;;;;;53.00;43.25;;;;;;;;5123087;27;46186;-78
2022/05/08 09:20:26;;;;;;;;;50.00;41.75;;;;;;;;5121799;27;45283;-80
2022/05/08 09:23:04;;;;;;;;;54.00;43.00;;;;;;;;5122964;27;45514;-75
2022/05/08 09:25:47;;;;;;;;;53.50;42.75;;;;;;;;5123375;27;45435;-77
2022/05/08 09:28:15;;;;;;;;;57.25;46.50;;;;;;;;5123784;27;45415;-76
2022/05/08 09:30:59;;;;;;;;;56.25;45.00;;;;;;;;5125486;27;45259;-79
2022/05/08 09:33:51;;;;;;;;;52.25;42.75;;;;;;;;5121304;27;45211;-78
2022/05/08 09:36:24;;;;;;;;;53.25;44.75;;;;;;;;5119296;27;46233;-79
2022/05/08 09:38:54;;;;;;;;;54.75;44.00;;;;;;;;5100151;27;45423;-82
2022/05/08 09:41:22;;;;;;;;;55.75;45.00;;;;;;;;5088279;27;45366;-80
2022/05/08 09:43:48;;;;;;;;;55.50;46.50;;;;;;;;5095648;27;45393;-81
2022/05/08 09:46:13;;;;;;;;;61.00;48.25;;;;;;;;5089139;27;45684;-81
2022/05/08 09:48:38;;;;;;;;;54.75;44.75;;;;;;;;5087754;27;45510;-78
2022/05/08 09:51:08;;;;;;;;;53.75;45.00;;;;;;;;5096240;27;45503;-78
2022/05/08 09:53:34;;;;;;;;;59.50;47.00;;;;;;;;5100796;27;45341;-80
2022/05/08 09:56:00;;;;;;;;;59.00;48.25;;;;;;;;5097789;27;47151;-79
2022/05/08 09:58:26;;;;;;;;;55.00;44.00;;;;;;;;5087787;27;46529;-80
2022/05/08 10:00:51;;;;;;;;;55.75;44.50;;;;;;;;5101019;27;45496;-83
2022/05/08 10:03:20;;;;;;;;;55.25;45.25;;;;;;;;5106748;27;45392;-81
2022/05/08 10:05:45;;;;;;;;;56.50;44.50;;;;;;;;5097363;27;45417;-80
2022/05/08 10:08:37;;;;;;;;;54.50;44.75;;;;;;;;5095901;27;47417;-80
2022/05/08 10:13:57;;;;;;;;;57.00;46.00;;;;;;;;5088472;28;45207;-77
2022/05/08 10:16:40;;;;;;;;;50.50;41.00;;;;;;;;5084391;27;45432;-78
2022/05/08 10:19:21;;;;;;;;;52.00;43.00;;;;;;;;5101753;27;47517;-79
2022/05/08 10:21:56;;;;;;;;;50.00;42.25;;;;;;;;5086312;27;45332;-78
2022/05/08 10:24:33;;;;;;;;;49.50;41.50;;;;;;;;5078853;28;45343;-77
2022/05/08 10:27:07;;;;;;;;;55.00;45.25;;;;;;;;5079907;28;47101;-78
2022/05/08 10:29:33;;;;;;;;;55.50;44.50;;;;;;;;5083440;27;45298;-80
2022/05/08 10:31:58;;;;;;;;;54.75;44.75;;;;;;;;5081522;27;45274;-78
2022/05/08 10:34:34;;;;;;;;;58.50;47.50;;;;;;;;5081108;28;45293;-78
2022/05/08 10:37:11;;;;;;;;;51.25;42.00;;;;;;;;5078719;28;47821;-79
2022/05/08 10:39:56;;;;;;;;;53.75;43.50;;;;;;;;5082535;28;48148;-77
2022/05/08 10:42:24;;;;;;;;;52.50;42.00;;;;;;;;5081873;27;45258;-78
2022/05/08 10:44:49;;;;;;;;;57.50;45.50;;;;;;;;5079527;27;45322;-79
2022/05/08 10:47:33;;;;;;;;;52.50;44.25;;;;;;;;5085517;28;45338;-78
2022/05/08 10:49:59;;;;;;;;;53.00;44.00;;;;;;;;5089912;27;45211;-78
2022/05/08 10:52:24;;;;;;;;;51.00;41.50;;;;;;;;5092079;27;45467;-79
2022/05/08 10:55:02;;;;;;;;;54.25;44.75;;;;;;;;5090861;28;45289;-78
2022/05/08 10:57:31;;;;;;;;;51.75;42.50;;;;;;;;5084658;27;45323;-77
2022/05/08 10:59:56;;;;;;;;;49.25;39.75;;;;;;;;5084327;27;46694;-76
2022/05/08 11:02:42;;;;;;;;;54.75;44.75;;;;;;;;5081525;28;45275;-78
2022/05/08 11:05:08;;;;;;;;;54.25;44.75;;;;;;;;5090023;27;45451;-77
2022/05/08 11:07:34;;;;;;;;;52.25;43.25;;;;;;;;5104775;27;45589;-79
2022/05/08 11:09:59;;;;;;;;;49.25;41.00;;;;;;;;5109354;27;46207;-79
2022/05/08 11:12:24;;;;;;;;;51.50;43.50;;;;;;;;5103037;27;45282;-79
2022/05/08 11:14:50;;;;;;;;;54.00;44.50;;;;;;;;5103891;27;45273;-82
2022/05/08 11:17:19;;;;;;;;;53.50;44.25;;;;;;;;5092397;27;46325;-79
2022/05/08 11:19:51;;;;;;;;;58.50;46.75;;;;;;;;5090262;27;45352;-77
2022/05/08 11:22:17;;;;;;;;;52.25;43.50;;;;;;;;5095981;27;45436;-75
2022/05/08 11:24:43;;;;;;;;;53.50;44.25;;;;;;;;5104658;27;46159;-75
2022/05/08 11:27:14;;;;;;;;;53.25;43.75;;;;;;;;5094563;27;45240;-78
2022/05/08 11:29:48;;;;;;;;;54.50;44.25;;;;;;;;5088998;27;45414;-78
2022/05/08 11:38:01;;;;;;;;;56.25;47.00;;;;;;;;5102764;27;45281;-78
2022/05/08 11:40:27;;;;;;;;;51.50;42.75;;;;;;;;5102252;27;47559;-78
2022/05/08 11:42:52;;;;;;;;;56.00;45.25;;;;;;;;5102357;27;45234;-75
2022/05/08 11:45:17;;;;;;;;;52.25;43.00;;;;;;;;5108053;27;45164;-77
2022/05/08 11:47:49;;;;;;;;;55.50;46.00;;;;;;;;5105720;27;47018;-76
2022/05/08 11:50:14;;;;;;;;;51.75;43.75;;;;;;;;5103975;27;48256;-79
2022/05/08 11:52:39;;;;;;;;;56.25;44.50;;;;;;;;5103539;27;45226;-80
2022/05/08 11:55:04;;;;;;;;;51.25;42.50;;;;;;;;5102203;27;45275;-78
2022/05/08 11:57:39;;;;;;;;;54.50;44.00;;;;;;;;5102507;27;45865;-77
2022/05/08 12:00:05;;;;;;;;;49.50;41.50;;;;;;;;5100138;27;48350;-77
2022/05/08 12:02:37;;;;;;;;;52.25;42.75;;;;;;;;5102367;27;45243;-77
2022/05/08 12:05:02;;;;;;;;;53.75;43.75;;;;;;;;5091795;27;45537;-79
2022/05/08 12:07:37;;;;;;;;;52.50;43.50;;;;;;;;5091773;27;45437;-78
2022/05/08 12:10:02;;;;;;;;;50.50;42.00;;;;;;;;5092941;27;47413;-78
2022/05/08 12:12:32;;;;;;;;;53.25;42.50;;;;;;;;5088668;27;45333;-79
2022/05/08 12:15:06;;;;;;;;;53.50;43.75;;;;;;;;5090738;27;45483;-77
2022/05/08 12:17:41;;;;;;;;;53.50;43.25;;;;;;;;5103765;27;45741;-80
2022/05/08 12:20:26;;;;;;;;;51.50;42.50;;;;;;;;5092105;27;45488;-77
2022/05/08 12:23:03;;;;;;;;;47.50;40.75;;;;;;;;5092759;27;45325;-78
2022/05/08 12:25:28;;;;;;;;;48.75;40.00;;;;;;;;5091791;27;45535;-79
2022/05/08 12:27:54;;;;;;;;;47.00;39.00;;;;;;;;5088988;27;45505;-80
2022/05/08 12:30:21;;;;;;;;;50.00;41.25;;;;;;;;5088983;27;46482;-81
2022/05/08 12:32:47;;;;;;;;;49.50;41.25;;;;;;;;5093023;27;46214;-79
2022/05/08 12:35:12;;;;;;;;;49.00;41.25;;;;;;;;5093788;27;45950;-78
2022/05/08 12:37:38;;;;;;;;;44.00;38.00;;;;;;;;5097965;27;45400;-77
2022/05/08 12:40:04;;;;;;;;;52.00;42.25;;;;;;;;5096829;27;45340;-78
2022/05/08 12:42:29;;;;;;;;;46.67;40.00;;;;;;;;5092655;27;45482;-80
2022/05/08 12:44:55;;;;;;;;;49.00;40.25;;;;;;;;5107155;27;45504;-79
2022/05/08 12:47:20;;;;;;;;;50.00;40.75;;;;;;;;5110932;27;45207;-81
2022/05/08 12:49:45;;;;;;;;;41.67;36.33;;;;;;;;5107916;27;45939;-79
2022/05/08 12:52:11;;;;;;;;;46.67;38.00;;;;;;;;5104828;27;45333;-79
2022/05/08 12:54:36;;;;;;;;;45.33;38.33;;;;;;;;5103713;27;45159;-80
2022/05/08 12:57:02;;;;;;;;;46.33;37.33;;;;;;;;5109369;27;45361;-82
2022/05/08 12:59:44;;;;;;;;;39.00;34.33;;;;;;;;5098047;27;46890;-76
2022/05/08 13:02:13;;;;;;;;;44.67;38.00;;;;;;;;5084047;28;45585;-79
2022/05/08 13:04:39;;;;;;;;;38.33;32.00;;;;;;;;5084808;28;45337;-78
2022/05/08 13:07:04;;;;;;;;;44.33;37.00;;;;;;;;5087138;28;47035;-78
2022/05/08 13:09:29;;;;;;;;;39.67;34.33;;;;;;;;5092596;27;45417;-81
2022/05/08 13:11:54;;;;;;;;;41.00;35.33;;;;;;;;5086981;27;45721;-80
2022/05/08 13:14:19;;;;;;;;;35.67;32.00;;;;;;;;5090148;27;45500;-81
2022/05/08 13:16:45;;;;;;;;;38.33;32.67;;;;;;;;5124126;27;45318;-79
2022/05/08 13:19:10;;;;;;;;;37.00;32.67;;;;;;;;5125342;27;47025;-78
2022/05/08 13:21:37;;;;;;;;;33.00;30.33;;;;;;;;5128817;27;45341;-80
2022/05/08 13:24:03;;;;;;;;;35.67;32.67;;;;;;;;5130780;27;45344;-81
2022/05/08 13:26:28;;;;;;;;;33.33;30.33;;;;;;;;5126708;27;46042;-79
2022/05/08 13:28:53;;;;;;;;;35.00;31.33;;;;;;;;5104049;27;46333;-81
2022/05/08 13:31:19;;;;;;;;;31.00;28.00;;;;;;;;5086702;27;45345;-79
2022/05/08 13:33:44;;;;;;;;;33.33;30.67;;;;;;;;5081400;28;45381;-81
2022/05/08 13:36:09;;;;;;;;;31.00;28.67;;;;;;;;5087894;27;45166;-79
2022/05/08 13:38:35;;;;;;;;;30.00;28.67;;;;;;;;5085733;28;47507;-80
2022/05/08 13:41:02;;;;;;;;;31.67;28.67;;;;;;;;5085514;28;45266;-79
2022/05/08 13:43:27;;;;;;;;;30.00;27.33;;;;;;;;5088775;27;45218;-77
2022/05/08 13:45:53;;;;;;;;;30.67;28.33;;;;;;;;5095944;27;45355;-82
2022/05/08 13:48:18;;;;;;;;;33.00;30.33;;;;;;;;5093194;27;48239;-79
2022/05/08 13:50:44;;;;;;;;;25.33;24.00;;;;;;;;5105582;27;45189;-79
2022/05/08 13:53:10;;;;;;;;;26.67;25.67;;;;;;;;5103292;27;45538;-78
2022/05/08 13:55:37;;;;;;;;;26.33;24.67;;;;;;;;5102703;27;45555;-80
2022/05/08 13:58:02;;;;;;;;;27.67;25.33;;;;;;;;5101619;27;47601;-79
2022/05/08 14:00:28;;;;;;;;;26.00;25.00;;;;;;;;5104375;27;45357;-79
2022/05/08 14:02:54;;;;;;;;;23.00;23.00;;;;;;;;5101539;27;45295;-79
2022/05/08 14:05:19;;;;;;;;;23.00;21.67;;;;;;;;5093407;27;47332;-80
2022/05/08 14:07:44;;;;;;;;;23.67;23.00;;;;;;;;5094334;27;48660;-79
2022/05/08 14:10:10;;;;;;;;;20.00;20.00;;;;;;;;5095858;27;45278;-79
2022/05/08 14:12:35;;;;;;;;;25.00;25.00;;;;;;;;5095561;27;45555;-78
2022/05/08 14:15:01;;;;;;;;;26.67;24.67;;;;;;;;5099796;27;45733;-79
2022/05/08 14:17:26;;;;;;;;;28.67;28.00;;;;;;;;5092131;27;45365;-81
2022/05/08 14:19:51;;;;;;;;;29.00;26.00;;;;;;;;5090485;27;45274;-80
2022/05/08 14:22:17;;;;;;;;;25.67;25.67;;;;;;;;5091155;27;45246;-80
2022/05/08 14:24:43;;;;;;;;;23.33;22.00;;;;;;;;5098455;27;45350;-78
2022/05/08 14:27:08;;;;;;;;;21.33;20.00;;;;;;;;5092152;27;45248;-78
2022/05/08 14:29:34;;;;;;;;;20.00;18.00;;;;;;;;5104326;27;45350;-79
2022/05/08 14:37:28;;;;;;;;;22.00;22.00;;;;;;;;5093566;27;45484;-77
2022/05/08 14:39:53;;;;;;;;;25.67;24.33;;;;;;;;5089922;27;45442;-80
2022/05/08 14:42:20;;;;;;;;;27.67;27.33;;;;;;;;5092027;27;45444;-82
2022/05/08 14:44:45;;;;;;;;;22.33;21.00;;;;;;;;5083474;27;45438;-76
2022/05/08 14:47:10;;;;;;;;;17.00;16.00;;;;;;;;5091112;27;45421;-80